Norfolk International Airport Norfolk US
ICAO: KORF
IATA: ORF
Category: Large
Scheduled Services: Yes

Elevation: 26 ft
TransAlt. 18000 ft.

Airport Communications:
APP:28.83
APP:118.9
ATIS:127.15
CLNC DEL:118.5
DEP:125.2
GND:121.9
LEESBURG RDO:116.9
TWR:120.8

KORF Zoom In..

If you have problems with the map follow the link
https://www.worldairports.se/pages/airport.php?
ICAO=KORF

Runways:

(A) RW 05 length 9001 ft width 150 ft
ILS 109.10 / hdg 47

(B) RW 14 length 4875 ft width 150 ft
---- / hdg 137

(C) RW 23 length 9001 ft width 150 ft
ILS 109.10 / hdg 227

(D) RW 32 length 4875 ft width 150 ft
---- / hdg 317

Location; KORF
Day. 21 / Time. 17.51 Zulu
* Altimeter: 30.10
* Temperature: 13° c. 55.4°f.
* Wind from: 330° Speed 10 kn with Gusts up to 17 kn.
Dewpoint: 01° c.
Visibility: 10 Statute Miles.
Clouds: Few 4900 ft.

KORF 211751Z 33010G17KT 10SM FEW049 13/01 A3010 RMK AO2 SLP193 T01330006 10139 20100 50006


Wind From 330°
Speed 10 kn.

 
 
jpsmedia.com for Web Design worldairports.se 2018   terms of use